»·PEaware :: N420VL KSNA-KSDM

N420VL :: KSNA-KSDM

FLIGHT INFORMATION

Flight Status: Arrived
Operator: Privately registered:
United States
More flights under this callsign
Pilot: Chris V. (11989)
Aircraft: BEECH AIRCRAFT BONANZA
(BE35)
More flights by this aircraft type
Origin: KSNA John Wayne-Orange Co
United States
Destination: KSDM Brown Mun
United States
More flights between these airports :: More routes between these airports
Route: +
File this flight plan on PilotEdge
Remarks: NFFE
Altitude:
(Current/Filed)
3,000ft
Speed:
(Current/Filed)
0kts
Departed: 08-Aug-17 09:03 PM
Arrived: 08-Aug-17 09:52 PM
Distance/Time
Traveled:
80nm/0:48
Distance/Time
To Go:
Arrived

Flight Plot

Page will automatically refresh every two minutes.

Flight plan parsing failed; only flown route is shown


Map Options




Map Legend


Flown Route
Filed Route
Departure Airport
Arrival Airport
Navaid (VOR, NDB)
Fix

Horizontal Profiles

Position Reports

Time Latitude Longitude Heading Altitude Ground
Speed
08-Aug-17 21:05 33.630418 -117.327376 114 4582ft 145kts
08-Aug-17 21:06 33.614392 -117.282680 114 4695ft 154kts
08-Aug-17 21:07 33.590332 -117.239400 133 4750ft 162kts
08-Aug-17 21:08 33.558507 -117.198445 133 4582ft 175kts
08-Aug-17 21:09 33.529129 -117.162998 136 4560ft 176kts
08-Aug-17 21:10 33.490664 -117.126186 146 4571ft 178kts
08-Aug-17 21:11 33.450457 -117.093498 145 4533ft 171kts
08-Aug-17 21:12 33.411879 -117.060749 145 4527ft 164kts
08-Aug-17 21:13 33.376885 -117.031058 145 4530ft 146kts
08-Aug-17 21:14 33.344441 -117.003439 145 4533ft 141kts
08-Aug-17 21:15 33.315352 -116.973345 118 4534ft 141kts
08-Aug-17 21:16 33.298235 -116.931163 116 4534ft 141kts
08-Aug-17 21:17 33.280616 -116.887383 116 4537ft 152kts
08-Aug-17 21:18 33.261875 -116.841106 116 4535ft 157kts
08-Aug-17 21:19 33.242708 -116.793774 116 4537ft 159kts
08-Aug-17 21:20 33.216394 -116.752536 171 4549ft 169kts
08-Aug-17 21:21 33.168773 -116.745464 189 4543ft 175kts
08-Aug-17 21:22 33.120352 -116.753833 188 4534ft 176kts
08-Aug-17 21:23 33.076448 -116.761365 188 4526ft 145kts
08-Aug-17 21:24 33.036460 -116.768238 188 4534ft 146kts
08-Aug-17 21:25 32.996311 -116.775090 188 4534ft 147kts
08-Aug-17 21:26 32.955813 -116.782000 188 4534ft 147kts
08-Aug-17 21:27 32.916620 -116.788679 188 4533ft 147kts
08-Aug-17 21:28 32.878402 -116.795204 188 4535ft 152kts
08-Aug-17 21:29 32.851668 -116.774738 121 4538ft 157kts
08-Aug-17 21:30 32.830494 -116.719440 99 4534ft 160kts
08-Aug-17 21:31 32.824251 -116.666919 98 4534ft 161kts
08-Aug-17 21:32 32.807423 -116.624790 181 4747ft 143kts
08-Aug-17 21:33 32.775602 -116.640623 204 4596ft 158kts
08-Aug-17 21:34 32.736497 -116.665546 210 4536ft 160kts
08-Aug-17 21:35 32.691597 -116.697999 213 4439ft 162kts
08-Aug-17 21:36 32.656665 -116.728564 220 4516ft 156kts
08-Aug-17 21:37 32.630652 -116.755704 220 4404ft 147kts
08-Aug-17 21:38 32.600681 -116.755005 110 4626ft 143kts
08-Aug-17 21:39 32.587142 -116.708985 96 4610ft 157kts
08-Aug-17 21:40 32.616258 -116.698562 292 4542ft 152kts
08-Aug-17 21:41 32.608789 -116.744282 239 4284ft 143kts
08-Aug-17 21:42 32.602759 -116.788014 267 4516ft 132kts
08-Aug-17 21:43 32.601506 -116.830491 265 4453ft 133kts
08-Aug-17 21:44 32.577333 -116.828170 99 4462ft 145kts
08-Aug-17 21:45 32.602095 -116.818424 289 4456ft 141kts
08-Aug-17 21:46 32.613022 -116.861720 278 4430ft 129kts
08-Aug-17 21:47 32.585184 -116.883891 197 2938ft 133kts
08-Aug-17 21:48 32.566973 -116.910941 275 1571ft 117kts
08-Aug-17 21:49 32.569632 -116.944050 274 998ft 90kts
08-Aug-17 21:50 32.571837 -116.970188 273 667ft 78kts
08-Aug-17 21:51 32.574403 -116.996370 302 1193ft 97kts
08-Aug-17 21:52 32.594197 -116.977987 98 1475ft 130kts
08-Aug-17 21:53 32.575094 -116.961937 186 796ft 86kts
08-Aug-17 21:54 32.572736 -116.980903 272 510ft 47kts
08-Aug-17 21:55 32.571328 -116.984267 180 510ft 16kts
08-Aug-17 21:56 32.571107 -116.992444 244 510ft 18kts
08-Aug-17 21:57 32.571253 -116.992650 2 510ft 0kts
08-Aug-17 21:58 32.571253 -116.992650 2 510ft 0kts
08-Aug-17 21:59 32.571253 -116.992650 2 510ft 0kts

Navigation Log

Ident Type
Flight plan parsing failed, navigation log unavailable